sensor_id;sensor_type;location;lat;lon;timestamp;P1;durP1;ratioP1;P2;durP2;ratioP2
49972;SDS011;65693;49.798;10.968;2023-03-30T00:00:14;2.85;;;1.60;;
49972;SDS011;65693;49.798;10.968;2023-03-30T00:02:44;1.98;;;1.38;;
49972;SDS011;65693;49.798;10.968;2023-03-30T00:05:11;1.85;;;1.35;;
49972;SDS011;65693;49.798;10.968;2023-03-30T00:07:38;2.15;;;1.40;;
49972;SDS011;65693;49.798;10.968;2023-03-30T00:10:06;2.67;;;1.50;;
49972;SDS011;65693;49.798;10.968;2023-03-30T00:12:33;1.63;;;1.30;;
49972;SDS011;65693;49.798;10.968;2023-03-30T00:15:01;2.22;;;1.33;;
49972;SDS011;65693;49.798;10.968;2023-03-30T00:17:28;2.85;;;1.40;;
49972;SDS011;65693;49.798;10.968;2023-03-30T00:19:54;1.95;;;1.10;;
49972;SDS011;65693;49.798;10.968;2023-03-30T00:22:21;1.90;;;1.10;;
49972;SDS011;65693;49.798;10.968;2023-03-30T00:24:48;2.40;;;1.48;;
49972;SDS011;65693;49.798;10.968;2023-03-30T00:27:14;2.28;;;1.20;;
49972;SDS011;65693;49.798;10.968;2023-03-30T00:29:41;2.05;;;1.38;;
49972;SDS011;65693;49.798;10.968;2023-03-30T00:32:08;2.47;;;1.40;;
49972;SDS011;65693;49.798;10.968;2023-03-30T00:34:35;2.88;;;1.40;;
49972;SDS011;65693;49.798;10.968;2023-03-30T00:37:01;1.80;;;1.30;;
49972;SDS011;65693;49.798;10.968;2023-03-30T00:39:28;2.83;;;1.63;;
49972;SDS011;65693;49.798;10.968;2023-03-30T00:41:54;2.17;;;1.33;;
49972;SDS011;65693;49.798;10.968;2023-03-30T00:47:26;1.85;;;1.42;;
49972;SDS011;65693;49.798;10.968;2023-03-30T00:49:53;1.98;;;1.27;;
49972;SDS011;65693;49.798;10.968;2023-03-30T00:52:20;3.22;;;1.58;;
49972;SDS011;65693;49.798;10.968;2023-03-30T00:54:49;2.17;;;1.27;;
49972;SDS011;65693;49.798;10.968;2023-03-30T00:57:17;2.05;;;1.30;;
49972;SDS011;65693;49.798;10.968;2023-03-30T00:59:46;2.00;;;1.23;;
49972;SDS011;65693;49.798;10.968;2023-03-30T01:02:15;2.08;;;1.30;;
49972;SDS011;65693;49.798;10.968;2023-03-30T01:04:44;2.63;;;1.40;;
49972;SDS011;65693;49.798;10.968;2023-03-30T01:07:11;2.33;;;1.38;;
49972;SDS011;65693;49.798;10.968;2023-03-30T01:09:38;2.15;;;1.38;;
49972;SDS011;65693;49.798;10.968;2023-03-30T01:12:05;3.08;;;1.40;;
49972;SDS011;65693;49.798;10.968;2023-03-30T01:14:32;1.77;;;1.30;;
49972;SDS011;65693;49.798;10.968;2023-03-30T01:17:01;2.08;;;1.30;;
49972;SDS011;65693;49.798;10.968;2023-03-30T01:22:46;2.08;;;1.30;;
49972;SDS011;65693;49.798;10.968;2023-03-30T01:25:30;2.22;;;1.40;;
49972;SDS011;65693;49.798;10.968;2023-03-30T01:28:19;2.28;;;1.40;;
49972;SDS011;65693;49.798;10.968;2023-03-30T01:31:03;1.90;;;1.23;;
49972;SDS011;65693;49.798;10.968;2023-03-30T01:33:55;3.08;;;1.70;;
49972;SDS011;65693;49.798;10.968;2023-03-30T01:36:31;1.95;;;1.20;;
49972;SDS011;65693;49.798;10.968;2023-03-30T01:39:22;1.83;;;1.38;;
49972;SDS011;65693;49.798;10.968;2023-03-30T01:41:57;2.38;;;1.40;;
49972;SDS011;65693;49.798;10.968;2023-03-30T01:44:31;1.65;;;1.35;;
49972;SDS011;65693;49.798;10.968;2023-03-30T01:47:03;2.35;;;1.50;;
49972;SDS011;65693;49.798;10.968;2023-03-30T01:49:36;2.55;;;1.35;;
49972;SDS011;65693;49.798;10.968;2023-03-30T01:52:11;1.80;;;1.25;;
49972;SDS011;65693;49.798;10.968;2023-03-30T01:54:44;2.13;;;1.40;;
49972;SDS011;65693;49.798;10.968;2023-03-30T01:57:14;1.92;;;1.20;;
49972;SDS011;65693;49.798;10.968;2023-03-30T01:59:45;2.22;;;1.30;;
49972;SDS011;65693;49.798;10.968;2023-03-30T02:02:19;1.77;;;1.23;;
49972;SDS011;65693;49.798;10.968;2023-03-30T02:04:48;2.05;;;1.30;;
49972;SDS011;65693;49.798;10.968;2023-03-30T02:07:18;2.10;;;1.40;;
49972;SDS011;65693;49.798;10.968;2023-03-30T02:09:49;1.85;;;1.10;;
49972;SDS011;65693;49.798;10.968;2023-03-30T02:12:18;2.67;;;1.40;;
49972;SDS011;65693;49.798;10.968;2023-03-30T02:14:46;2.70;;;1.80;;
49972;SDS011;65693;49.798;10.968;2023-03-30T02:17:15;1.88;;;1.27;;
49972;SDS011;65693;49.798;10.968;2023-03-30T02:19:44;2.38;;;1.40;;
49972;SDS011;65693;49.798;10.968;2023-03-30T02:22:11;2.50;;;1.35;;
49972;SDS011;65693;49.798;10.968;2023-03-30T02:24:39;2.25;;;1.42;;
49972;SDS011;65693;49.798;10.968;2023-03-30T02:27:09;3.40;;;1.42;;
49972;SDS011;65693;49.798;10.968;2023-03-30T02:29:36;1.52;;;1.20;;
49972;SDS011;65693;49.798;10.968;2023-03-30T02:32:08;2.25;;;1.35;;
49972;SDS011;65693;49.798;10.968;2023-03-30T02:34:44;2.47;;;1.40;;
49972;SDS011;65693;49.798;10.968;2023-03-30T02:37:36;2.55;;;1.40;;
49972;SDS011;65693;49.798;10.968;2023-03-30T02:40:20;2.30;;;1.20;;
49972;SDS011;65693;49.798;10.968;2023-03-30T02:45:51;2.38;;;1.45;;
49972;SDS011;65693;49.798;10.968;2023-03-30T02:48:28;1.98;;;1.30;;
49972;SDS011;65693;49.798;10.968;2023-03-30T02:51:10;2.05;;;1.48;;
49972;SDS011;65693;49.798;10.968;2023-03-30T02:53:49;2.63;;;1.70;;
49972;SDS011;65693;49.798;10.968;2023-03-30T02:56:23;2.53;;;1.42;;
49972;SDS011;65693;49.798;10.968;2023-03-30T02:58:55;2.45;;;1.42;;
49972;SDS011;65693;49.798;10.968;2023-03-30T03:01:27;2.33;;;1.50;;
49972;SDS011;65693;49.798;10.968;2023-03-30T03:04:00;2.60;;;1.45;;
49972;SDS011;65693;49.798;10.968;2023-03-30T03:06:29;2.13;;;1.40;;
49972;SDS011;65693;49.798;10.968;2023-03-30T03:08:57;3.00;;;1.40;;
49972;SDS011;65693;49.798;10.968;2023-03-30T03:11:24;2.03;;;1.48;;
49972;SDS011;65693;49.798;10.968;2023-03-30T03:13:51;2.85;;;1.50;;
49972;SDS011;65693;49.798;10.968;2023-03-30T03:16:19;1.95;;;1.40;;
49972;SDS011;65693;49.798;10.968;2023-03-30T03:18:45;3.08;;;1.55;;
49972;SDS011;65693;49.798;10.968;2023-03-30T03:21:13;2.08;;;1.23;;
49972;SDS011;65693;49.798;10.968;2023-03-30T03:23:40;2.72;;;1.30;;
49972;SDS011;65693;49.798;10.968;2023-03-30T03:26:07;2.42;;;1.42;;
49972;SDS011;65693;49.798;10.968;2023-03-30T03:28:34;2.17;;;1.40;;
49972;SDS011;65693;49.798;10.968;2023-03-30T03:31:00;2.22;;;1.45;;
49972;SDS011;65693;49.798;10.968;2023-03-30T03:33:29;2.83;;;1.45;;
49972;SDS011;65693;49.798;10.968;2023-03-30T03:35:56;3.17;;;1.70;;
49972;SDS011;65693;49.798;10.968;2023-03-30T03:38:24;2.38;;;1.40;;
49972;SDS011;65693;49.798;10.968;2023-03-30T03:40:52;2.85;;;1.58;;
49972;SDS011;65693;49.798;10.968;2023-03-30T03:43:20;2.40;;;1.42;;
49972;SDS011;65693;49.798;10.968;2023-03-30T03:45:47;3.00;;;1.63;;
49972;SDS011;65693;49.798;10.968;2023-03-30T03:48:14;2.20;;;1.40;;
49972;SDS011;65693;49.798;10.968;2023-03-30T03:50:43;1.80;;;1.20;;
49972;SDS011;65693;49.798;10.968;2023-03-30T03:53:10;2.25;;;1.35;;
49972;SDS011;65693;49.798;10.968;2023-03-30T03:55:37;2.13;;;1.40;;
49972;SDS011;65693;49.798;10.968;2023-03-30T03:58:05;3.22;;;1.63;;
49972;SDS011;65693;49.798;10.968;2023-03-30T04:00:32;2.38;;;1.40;;
49972;SDS011;65693;49.798;10.968;2023-03-30T04:02:59;2.92;;;1.65;;
49972;SDS011;65693;49.798;10.968;2023-03-30T04:05:26;2.80;;;1.67;;
49972;SDS011;65693;49.798;10.968;2023-03-30T04:07:53;2.05;;;1.45;;
49972;SDS011;65693;49.798;10.968;2023-03-30T04:10:21;2.33;;;1.20;;
49972;SDS011;65693;49.798;10.968;2023-03-30T04:12:48;2.17;;;1.30;;
49972;SDS011;65693;49.798;10.968;2023-03-30T04:15:14;2.20;;;1.30;;
49972;SDS011;65693;49.798;10.968;2023-03-30T04:17:41;2.72;;;1.35;;
49972;SDS011;65693;49.798;10.968;2023-03-30T04:20:09;2.58;;;1.52;;
49972;SDS011;65693;49.798;10.968;2023-03-30T04:22:37;1.67;;;1.20;;
49972;SDS011;65693;49.798;10.968;2023-03-30T04:25:07;2.00;;;1.30;;
49972;SDS011;65693;49.798;10.968;2023-03-30T04:27:45;2.67;;;1.50;;
49972;SDS011;65693;49.798;10.968;2023-03-30T04:30:14;2.33;;;1.20;;
49972;SDS011;65693;49.798;10.968;2023-03-30T04:32:43;3.28;;;1.50;;
49972;SDS011;65693;49.798;10.968;2023-03-30T04:35:11;2.35;;;1.50;;
49972;SDS011;65693;49.798;10.968;2023-03-30T04:37:38;2.20;;;1.35;;
49972;SDS011;65693;49.798;10.968;2023-03-30T04:40:08;2.25;;;1.30;;
49972;SDS011;65693;49.798;10.968;2023-03-30T04:42:35;2.65;;;1.38;;
49972;SDS011;65693;49.798;10.968;2023-03-30T04:45:02;2.10;;;1.48;;
49972;SDS011;65693;49.798;10.968;2023-03-30T04:47:30;2.60;;;1.55;;
49972;SDS011;65693;49.798;10.968;2023-03-30T04:49:56;2.38;;;1.50;;
49972;SDS011;65693;49.798;10.968;2023-03-30T04:52:23;2.13;;;1.55;;
49972;SDS011;65693;49.798;10.968;2023-03-30T04:54:50;2.67;;;1.60;;
49972;SDS011;65693;49.798;10.968;2023-03-30T04:57:17;1.70;;;1.30;;
49972;SDS011;65693;49.798;10.968;2023-03-30T04:59:44;2.80;;;1.67;;
49972;SDS011;65693;49.798;10.968;2023-03-30T05:02:11;6.63;;;1.58;;
49972;SDS011;65693;49.798;10.968;2023-03-30T05:04:38;4.00;;;1.73;;
49972;SDS011;65693;49.798;10.968;2023-03-30T05:07:05;5.95;;;2.28;;
49972;SDS011;65693;49.798;10.968;2023-03-30T05:09:32;4.32;;;1.80;;
49972;SDS011;65693;49.798;10.968;2023-03-30T05:11:59;3.47;;;1.52;;
49972;SDS011;65693;49.798;10.968;2023-03-30T05:14:27;3.90;;;1.77;;
49972;SDS011;65693;49.798;10.968;2023-03-30T05:16:53;2.70;;;1.50;;
49972;SDS011;65693;49.798;10.968;2023-03-30T05:19:20;3.83;;;1.60;;
49972;SDS011;65693;49.798;10.968;2023-03-30T05:21:46;3.78;;;1.95;;
49972;SDS011;65693;49.798;10.968;2023-03-30T05:24:12;4.25;;;1.73;;
49972;SDS011;65693;49.798;10.968;2023-03-30T05:26:39;3.22;;;1.80;;
49972;SDS011;65693;49.798;10.968;2023-03-30T05:29:05;3.70;;;1.67;;
49972;SDS011;65693;49.798;10.968;2023-03-30T05:31:33;3.58;;;1.92;;
49972;SDS011;65693;49.798;10.968;2023-03-30T05:33:59;5.15;;;2.20;;
49972;SDS011;65693;49.798;10.968;2023-03-30T05:36:26;3.13;;;1.80;;
49972;SDS011;65693;49.798;10.968;2023-03-30T05:38:52;3.58;;;1.98;;
49972;SDS011;65693;49.798;10.968;2023-03-30T05:41:18;3.92;;;1.70;;
49972;SDS011;65693;49.798;10.968;2023-03-30T05:43:46;3.08;;;1.80;;
49972;SDS011;65693;49.798;10.968;2023-03-30T05:46:13;3.30;;;2.00;;
49972;SDS011;65693;49.798;10.968;2023-03-30T05:48:40;3.55;;;1.73;;
49972;SDS011;65693;49.798;10.968;2023-03-30T05:51:07;5.32;;;2.13;;
49972;SDS011;65693;49.798;10.968;2023-03-30T05:53:33;4.30;;;1.75;;
49972;SDS011;65693;49.798;10.968;2023-03-30T05:56:00;3.75;;;1.85;;
49972;SDS011;65693;49.798;10.968;2023-03-30T05:58:26;3.88;;;1.85;;
49972;SDS011;65693;49.798;10.968;2023-03-30T06:00:55;3.10;;;1.73;;
49972;SDS011;65693;49.798;10.968;2023-03-30T06:03:22;2.67;;;1.67;;
49972;SDS011;65693;49.798;10.968;2023-03-30T06:05:50;3.85;;;1.90;;
49972;SDS011;65693;49.798;10.968;2023-03-30T06:08:17;3.30;;;1.65;;
49972;SDS011;65693;49.798;10.968;2023-03-30T06:10:50;3.35;;;1.92;;
49972;SDS011;65693;49.798;10.968;2023-03-30T06:13:17;3.58;;;2.30;;
49972;SDS011;65693;49.798;10.968;2023-03-30T06:15:44;3.90;;;1.65;;
49972;SDS011;65693;49.798;10.968;2023-03-30T06:18:10;3.50;;;1.73;;
49972;SDS011;65693;49.798;10.968;2023-03-30T06:20:36;3.17;;;1.55;;
49972;SDS011;65693;49.798;10.968;2023-03-30T06:23:04;4.45;;;2.10;;
49972;SDS011;65693;49.798;10.968;2023-03-30T06:25:31;2.78;;;1.70;;
49972;SDS011;65693;49.798;10.968;2023-03-30T06:27:57;4.03;;;2.10;;
49972;SDS011;65693;49.798;10.968;2023-03-30T06:30:24;5.35;;;2.05;;
49972;SDS011;65693;49.798;10.968;2023-03-30T06:32:50;4.43;;;1.90;;
49972;SDS011;65693;49.798;10.968;2023-03-30T06:35:17;3.63;;;2.00;;
49972;SDS011;65693;49.798;10.968;2023-03-30T06:37:45;3.13;;;1.80;;
49972;SDS011;65693;49.798;10.968;2023-03-30T06:40:13;4.32;;;1.80;;
49972;SDS011;65693;49.798;10.968;2023-03-30T06:42:40;3.95;;;2.00;;
49972;SDS011;65693;49.798;10.968;2023-03-30T06:45:09;3.90;;;1.85;;
49972;SDS011;65693;49.798;10.968;2023-03-30T06:47:36;4.78;;;2.30;;
49972;SDS011;65693;49.798;10.968;2023-03-30T06:50:03;4.18;;;1.95;;
49972;SDS011;65693;49.798;10.968;2023-03-30T06:52:32;3.75;;;2.00;;
49972;SDS011;65693;49.798;10.968;2023-03-30T06:54:59;3.60;;;1.80;;
49972;SDS011;65693;49.798;10.968;2023-03-30T06:57:27;3.50;;;1.83;;
49972;SDS011;65693;49.798;10.968;2023-03-30T06:59:54;4.28;;;1.83;;
49972;SDS011;65693;49.798;10.968;2023-03-30T07:02:21;3.83;;;1.80;;
49972;SDS011;65693;49.798;10.968;2023-03-30T07:04:49;4.25;;;2.13;;
49972;SDS011;65693;49.798;10.968;2023-03-30T07:07:16;4.03;;;2.00;;
49972;SDS011;65693;49.798;10.968;2023-03-30T07:09:42;3.50;;;1.80;;
49972;SDS011;65693;49.798;10.968;2023-03-30T07:12:09;4.03;;;1.88;;
49972;SDS011;65693;49.798;10.968;2023-03-30T07:14:37;4.25;;;1.90;;
49972;SDS011;65693;49.798;10.968;2023-03-30T07:17:03;4.85;;;1.95;;
49972;SDS011;65693;49.798;10.968;2023-03-30T07:19:31;4.07;;;1.80;;
49972;SDS011;65693;49.798;10.968;2023-03-30T07:21:57;3.33;;;1.98;;
49972;SDS011;65693;49.798;10.968;2023-03-30T07:24:24;3.83;;;2.25;;
49972;SDS011;65693;49.798;10.968;2023-03-30T07:26:50;3.55;;;2.03;;
49972;SDS011;65693;49.798;10.968;2023-03-30T07:29:16;4.05;;;1.88;;
49972;SDS011;65693;49.798;10.968;2023-03-30T07:31:44;4.10;;;2.08;;
49972;SDS011;65693;49.798;10.968;2023-03-30T07:34:11;3.85;;;1.70;;
49972;SDS011;65693;49.798;10.968;2023-03-30T07:36:38;2.95;;;1.63;;
49972;SDS011;65693;49.798;10.968;2023-03-30T07:39:04;2.67;;;1.77;;
49972;SDS011;65693;49.798;10.968;2023-03-30T07:41:32;3.50;;;1.80;;
49972;SDS011;65693;49.798;10.968;2023-03-30T07:43:58;4.43;;;1.88;;
49972;SDS011;65693;49.798;10.968;2023-03-30T07:46:25;3.28;;;2.05;;
49972;SDS011;65693;49.798;10.968;2023-03-30T07:48:52;3.45;;;1.90;;
49972;SDS011;65693;49.798;10.968;2023-03-30T07:51:19;3.10;;;1.73;;
49972;SDS011;65693;49.798;10.968;2023-03-30T07:53:46;2.58;;;1.67;;
49972;SDS011;65693;49.798;10.968;2023-03-30T07:56:12;5.05;;;1.92;;
49972;SDS011;65693;49.798;10.968;2023-03-30T07:58:39;3.38;;;1.70;;
49972;SDS011;65693;49.798;10.968;2023-03-30T08:01:05;4.43;;;2.00;;
49972;SDS011;65693;49.798;10.968;2023-03-30T08:03:32;3.83;;;2.58;;
49972;SDS011;65693;49.798;10.968;2023-03-30T08:06:01;3.33;;;1.80;;
49972;SDS011;65693;49.798;10.968;2023-03-30T08:08:29;3.40;;;1.80;;
49972;SDS011;65693;49.798;10.968;2023-03-30T08:10:56;3.45;;;1.77;;
49972;SDS011;65693;49.798;10.968;2023-03-30T08:13:23;3.42;;;2.05;;
49972;SDS011;65693;49.798;10.968;2023-03-30T08:15:49;3.58;;;1.90;;
49972;SDS011;65693;49.798;10.968;2023-03-30T08:18:16;4.97;;;2.70;;
49972;SDS011;65693;49.798;10.968;2023-03-30T08:20:43;3.55;;;2.00;;
49972;SDS011;65693;49.798;10.968;2023-03-30T08:23:11;3.67;;;1.83;;
49972;SDS011;65693;49.798;10.968;2023-03-30T08:25:38;5.18;;;1.90;;
49972;SDS011;65693;49.798;10.968;2023-03-30T08:28:05;4.53;;;1.90;;
49972;SDS011;65693;49.798;10.968;2023-03-30T08:30:32;4.28;;;1.90;;
49972;SDS011;65693;49.798;10.968;2023-03-30T08:32:59;3.70;;;1.92;;
49972;SDS011;65693;49.798;10.968;2023-03-30T08:35:25;4.28;;;2.30;;
49972;SDS011;65693;49.798;10.968;2023-03-30T08:37:52;5.72;;;2.08;;
49972;SDS011;65693;49.798;10.968;2023-03-30T08:40:20;3.92;;;1.77;;
49972;SDS011;65693;49.798;10.968;2023-03-30T08:43:09;4.13;;;2.30;;
49972;SDS011;65693;49.798;10.968;2023-03-30T08:45:45;3.70;;;2.10;;
49972;SDS011;65693;49.798;10.968;2023-03-30T08:48:14;3.83;;;1.98;;
49972;SDS011;65693;49.798;10.968;2023-03-30T08:50:45;3.85;;;1.95;;
49972;SDS011;65693;49.798;10.968;2023-03-30T08:53:14;3.83;;;1.90;;
49972;SDS011;65693;49.798;10.968;2023-03-30T08:55:43;3.50;;;1.95;;
49972;SDS011;65693;49.798;10.968;2023-03-30T08:58:15;3.17;;;1.80;;
49972;SDS011;65693;49.798;10.968;2023-03-30T09:00:49;4.05;;;1.83;;
49972;SDS011;65693;49.798;10.968;2023-03-30T09:03:25;5.63;;;2.08;;
49972;SDS011;65693;49.798;10.968;2023-03-30T09:05:55;3.72;;;2.20;;
49972;SDS011;65693;49.798;10.968;2023-03-30T09:08:29;3.20;;;1.75;;
49972;SDS011;65693;49.798;10.968;2023-03-30T09:11:00;4.72;;;2.15;;
49972;SDS011;65693;49.798;10.968;2023-03-30T09:13:30;3.53;;;1.90;;
49972;SDS011;65693;49.798;10.968;2023-03-30T09:16:00;4.45;;;2.08;;
49972;SDS011;65693;49.798;10.968;2023-03-30T09:18:30;3.53;;;1.90;;
49972;SDS011;65693;49.798;10.968;2023-03-30T09:20:59;3.15;;;1.90;;
49972;SDS011;65693;49.798;10.968;2023-03-30T09:23:28;3.72;;;1.90;;
49972;SDS011;65693;49.798;10.968;2023-03-30T09:25:57;3.22;;;2.03;;
49972;SDS011;65693;49.798;10.968;2023-03-30T09:28:33;4.85;;;1.95;;
49972;SDS011;65693;49.798;10.968;2023-03-30T09:31:08;3.58;;;1.70;;
49972;SDS011;65693;49.798;10.968;2023-03-30T09:33:40;4.22;;;2.15;;
49972;SDS011;65693;49.798;10.968;2023-03-30T09:36:13;3.05;;;2.00;;
49972;SDS011;65693;49.798;10.968;2023-03-30T09:38:41;5.35;;;1.90;;
49972;SDS011;65693;49.798;10.968;2023-03-30T09:41:12;3.42;;;2.00;;
49972;SDS011;65693;49.798;10.968;2023-03-30T09:43:47;3.55;;;2.10;;
49972;SDS011;65693;49.798;10.968;2023-03-30T09:46:16;2.70;;;1.70;;
49972;SDS011;65693;49.798;10.968;2023-03-30T09:48:44;3.25;;;1.70;;
49972;SDS011;65693;49.798;10.968;2023-03-30T09:51:18;3.25;;;1.77;;
49972;SDS011;65693;49.798;10.968;2023-03-30T09:53:47;4.05;;;1.92;;
49972;SDS011;65693;49.798;10.968;2023-03-30T09:56:18;4.70;;;2.15;;
49972;SDS011;65693;49.798;10.968;2023-03-30T09:58:51;3.60;;;1.88;;
49972;SDS011;65693;49.798;10.968;2023-03-30T10:01:18;3.45;;;1.77;;
49972;SDS011;65693;49.798;10.968;2023-03-30T10:06:34;4.63;;;2.08;;
49972;SDS011;65693;49.798;10.968;2023-03-30T10:09:05;3.53;;;1.83;;
49972;SDS011;65693;49.798;10.968;2023-03-30T10:11:38;3.63;;;2.10;;
49972;SDS011;65693;49.798;10.968;2023-03-30T10:16:56;4.85;;;2.08;;
49972;SDS011;65693;49.798;10.968;2023-03-30T10:19:24;3.67;;;1.90;;
49972;SDS011;65693;49.798;10.968;2023-03-30T10:21:52;3.42;;;2.00;;
49972;SDS011;65693;49.798;10.968;2023-03-30T10:24:20;3.88;;;2.00;;
49972;SDS011;65693;49.798;10.968;2023-03-30T10:26:50;2.83;;;1.95;;
49972;SDS011;65693;49.798;10.968;2023-03-30T10:29:20;2.95;;;1.92;;
49972;SDS011;65693;49.798;10.968;2023-03-30T10:31:48;2.60;;;1.80;;
49972;SDS011;65693;49.798;10.968;2023-03-30T10:34:17;3.38;;;1.75;;
49972;SDS011;65693;49.798;10.968;2023-03-30T10:36:49;4.25;;;2.15;;
49972;SDS011;65693;49.798;10.968;2023-03-30T10:39:20;3.60;;;2.00;;
49972;SDS011;65693;49.798;10.968;2023-03-30T10:41:50;3.72;;;2.17;;
49972;SDS011;65693;49.798;10.968;2023-03-30T10:44:18;3.55;;;1.88;;
49972;SDS011;65693;49.798;10.968;2023-03-30T10:46:49;4.45;;;2.00;;
49972;SDS011;65693;49.798;10.968;2023-03-30T10:49:20;3.88;;;1.85;;
49972;SDS011;65693;49.798;10.968;2023-03-30T10:52:00;3.55;;;1.88;;
49972;SDS011;65693;49.798;10.968;2023-03-30T10:54:35;4.13;;;1.80;;
49972;SDS011;65693;49.798;10.968;2023-03-30T10:57:09;4.07;;;2.00;;
49972;SDS011;65693;49.798;10.968;2023-03-30T11:02:38;3.72;;;2.03;;
49972;SDS011;65693;49.798;10.968;2023-03-30T11:05:14;3.83;;;2.10;;
49972;SDS011;65693;49.798;10.968;2023-03-30T11:07:45;3.90;;;1.92;;
49972;SDS011;65693;49.798;10.968;2023-03-30T11:10:16;4.55;;;2.10;;
49972;SDS011;65693;49.798;10.968;2023-03-30T11:12:47;3.22;;;1.90;;
49972;SDS011;65693;49.798;10.968;2023-03-30T11:15:18;4.43;;;2.58;;
49972;SDS011;65693;49.798;10.968;2023-03-30T11:17:52;3.28;;;1.90;;
49972;SDS011;65693;49.798;10.968;2023-03-30T11:20:26;3.60;;;1.80;;
49972;SDS011;65693;49.798;10.968;2023-03-30T11:23:07;2.70;;;1.70;;
49972;SDS011;65693;49.798;10.968;2023-03-30T11:25:40;3.30;;;1.83;;
49972;SDS011;65693;49.798;10.968;2023-03-30T11:28:17;3.10;;;1.80;;
49972;SDS011;65693;49.798;10.968;2023-03-30T11:30:53;3.58;;;1.88;;
49972;SDS011;65693;49.798;10.968;2023-03-30T11:33:26;4.28;;;2.10;;
49972;SDS011;65693;49.798;10.968;2023-03-30T11:36:02;3.30;;;1.80;;
49972;SDS011;65693;49.798;10.968;2023-03-30T11:38:38;4.20;;;2.20;;
49972;SDS011;65693;49.798;10.968;2023-03-30T11:41:09;4.32;;;1.90;;
49972;SDS011;65693;49.798;10.968;2023-03-30T11:43:40;4.07;;;2.15;;
49972;SDS011;65693;49.798;10.968;2023-03-30T11:46:08;3.22;;;1.80;;
49972;SDS011;65693;49.798;10.968;2023-03-30T11:48:54;2.88;;;1.85;;
49972;SDS011;65693;49.798;10.968;2023-03-30T11:51:37;2.85;;;1.90;;
49972;SDS011;65693;49.798;10.968;2023-03-30T11:54:22;5.45;;;2.30;;
49972;SDS011;65693;49.798;10.968;2023-03-30T11:57:03;3.25;;;1.92;;
49972;SDS011;65693;49.798;10.968;2023-03-30T11:59:40;4.35;;;2.03;;
49972;SDS011;65693;49.798;10.968;2023-03-30T12:02:15;4.03;;;2.38;;
49972;SDS011;65693;49.798;10.968;2023-03-30T12:04:53;3.85;;;2.28;;
49972;SDS011;65693;49.798;10.968;2023-03-30T12:07:25;4.00;;;2.08;;
49972;SDS011;65693;49.798;10.968;2023-03-30T12:09:58;4.70;;;1.95;;
49972;SDS011;65693;49.798;10.968;2023-03-30T12:12:29;3.92;;;2.10;;
49972;SDS011;65693;49.798;10.968;2023-03-30T12:15:01;2.60;;;2.00;;
49972;SDS011;65693;49.798;10.968;2023-03-30T12:17:39;4.15;;;1.90;;
49972;SDS011;65693;49.798;10.968;2023-03-30T12:20:14;5.03;;;1.90;;
49972;SDS011;65693;49.798;10.968;2023-03-30T12:22:51;4.22;;;2.08;;
49972;SDS011;65693;49.798;10.968;2023-03-30T12:25:27;3.15;;;2.00;;
49972;SDS011;65693;49.798;10.968;2023-03-30T12:28:02;5.47;;;2.20;;
49972;SDS011;65693;49.798;10.968;2023-03-30T12:30:41;3.88;;;2.45;;
49972;SDS011;65693;49.798;10.968;2023-03-30T12:33:10;5.15;;;2.10;;
49972;SDS011;65693;49.798;10.968;2023-03-30T12:35:52;4.43;;;2.03;;
49972;SDS011;65693;49.798;10.968;2023-03-30T12:38:23;3.67;;;2.10;;
49972;SDS011;65693;49.798;10.968;2023-03-30T12:41:00;3.13;;;2.03;;
49972;SDS011;65693;49.798;10.968;2023-03-30T12:43:30;4.25;;;2.15;;
49972;SDS011;65693;49.798;10.968;2023-03-30T12:46:09;4.38;;;2.30;;
49972;SDS011;65693;49.798;10.968;2023-03-30T12:48:50;3.75;;;2.17;;
49972;SDS011;65693;49.798;10.968;2023-03-30T12:51:33;3.22;;;2.00;;
49972;SDS011;65693;49.798;10.968;2023-03-30T12:57:09;4.20;;;2.35;;
49972;SDS011;65693;49.798;10.968;2023-03-30T12:59:53;4.60;;;2.17;;
49972;SDS011;65693;49.798;10.968;2023-03-30T13:02:47;3.97;;;2.13;;
49972;SDS011;65693;49.798;10.968;2023-03-30T13:05:27;5.15;;;2.17;;
49972;SDS011;65693;49.798;10.968;2023-03-30T13:07:56;3.63;;;2.10;;
49972;SDS011;65693;49.798;10.968;2023-03-30T13:10:32;3.38;;;2.22;;
49972;SDS011;65693;49.798;10.968;2023-03-30T13:13:06;4.00;;;2.15;;
49972;SDS011;65693;49.798;10.968;2023-03-30T13:15:45;3.25;;;2.00;;
49972;SDS011;65693;49.798;10.968;2023-03-30T13:18:32;6.38;;;2.67;;
49972;SDS011;65693;49.798;10.968;2023-03-30T13:21:05;3.83;;;2.20;;
49972;SDS011;65693;49.798;10.968;2023-03-30T13:23:43;4.60;;;2.22;;
49972;SDS011;65693;49.798;10.968;2023-03-30T13:26:20;3.85;;;2.25;;
49972;SDS011;65693;49.798;10.968;2023-03-30T13:29:01;3.50;;;2.05;;
49972;SDS011;65693;49.798;10.968;2023-03-30T13:34:37;4.05;;;2.28;;
49972;SDS011;65693;49.798;10.968;2023-03-30T13:37:16;3.53;;;2.47;;
49972;SDS011;65693;49.798;10.968;2023-03-30T13:39:49;4.90;;;2.30;;
49972;SDS011;65693;49.798;10.968;2023-03-30T13:42:36;5.03;;;2.28;;
49972;SDS011;65693;49.798;10.968;2023-03-30T13:45:17;5.05;;;2.40;;
49972;SDS011;65693;49.798;10.968;2023-03-30T13:47:56;3.80;;;2.22;;
49972;SDS011;65693;49.798;10.968;2023-03-30T13:50:33;3.97;;;2.30;;
49972;SDS011;65693;49.798;10.968;2023-03-30T13:53:00;5.05;;;2.30;;
49972;SDS011;65693;49.798;10.968;2023-03-30T13:55:29;3.85;;;2.38;;
49972;SDS011;65693;49.798;10.968;2023-03-30T13:57:58;4.65;;;2.20;;
49972;SDS011;65693;49.798;10.968;2023-03-30T14:00:34;4.47;;;2.40;;
49972;SDS011;65693;49.798;10.968;2023-03-30T14:06:15;3.55;;;2.17;;
49972;SDS011;65693;49.798;10.968;2023-03-30T14:08:43;4.05;;;2.92;;
49972;SDS011;65693;49.798;10.968;2023-03-30T14:11:15;3.70;;;2.28;;
49972;SDS011;65693;49.798;10.968;2023-03-30T14:13:44;5.20;;;2.33;;
49972;SDS011;65693;49.798;10.968;2023-03-30T14:16:16;5.90;;;2.55;;
49972;SDS011;65693;49.798;10.968;2023-03-30T14:18:45;4.35;;;2.15;;
49972;SDS011;65693;49.798;10.968;2023-03-30T14:21:14;5.18;;;2.10;;
49972;SDS011;65693;49.798;10.968;2023-03-30T14:23:44;4.78;;;2.80;;
49972;SDS011;65693;49.798;10.968;2023-03-30T14:26:14;6.20;;;2.60;;
49972;SDS011;65693;49.798;10.968;2023-03-30T14:28:42;5.10;;;2.35;;
49972;SDS011;65693;49.798;10.968;2023-03-30T14:31:13;3.55;;;2.08;;
49972;SDS011;65693;49.798;10.968;2023-03-30T14:33:41;4.60;;;2.38;;
49972;SDS011;65693;49.798;10.968;2023-03-30T14:36:08;5.30;;;2.40;;
49972;SDS011;65693;49.798;10.968;2023-03-30T14:38:38;4.82;;;2.22;;
49972;SDS011;65693;49.798;10.968;2023-03-30T14:41:06;6.78;;;2.08;;
49972;SDS011;65693;49.798;10.968;2023-03-30T14:43:36;5.90;;;1.95;;
49972;SDS011;65693;49.798;10.968;2023-03-30T14:46:05;6.97;;;2.50;;
49972;SDS011;65693;49.798;10.968;2023-03-30T14:48:35;2.40;;;1.40;;
49972;SDS011;65693;49.798;10.968;2023-03-30T14:51:03;4.88;;;1.52;;
49972;SDS011;65693;49.798;10.968;2023-03-30T14:53:33;4.45;;;1.60;;
49972;SDS011;65693;49.798;10.968;2023-03-30T14:56:01;4.47;;;1.65;;
49972;SDS011;65693;49.798;10.968;2023-03-30T14:58:29;4.85;;;1.48;;
49972;SDS011;65693;49.798;10.968;2023-03-30T15:00:58;3.58;;;1.75;;
49972;SDS011;65693;49.798;10.968;2023-03-30T15:03:27;3.90;;;1.77;;
49972;SDS011;65693;49.798;10.968;2023-03-30T15:05:58;3.53;;;1.15;;
49972;SDS011;65693;49.798;10.968;2023-03-30T15:08:25;2.47;;;1.13;;
49972;SDS011;65693;49.798;10.968;2023-03-30T15:10:55;4.40;;;1.40;;
49972;SDS011;65693;49.798;10.968;2023-03-30T15:13:25;4.25;;;1.42;;
49972;SDS011;65693;49.798;10.968;2023-03-30T15:15:58;5.63;;;1.48;;
49972;SDS011;65693;49.798;10.968;2023-03-30T15:18:26;3.40;;;1.75;;